METAR Data
IDs: Format: Raw Decoded Include TAF

Data at: 1135 UTC 07 Oct 2022

ESGT 071120Z 22017G35KT 9999 BKN017 BKN026 OVC043 14/11 Q1009